sensor_id;sensor_type;location;lat;lon;timestamp;temperature;humidity
14517;DHT22;7344;50.864;4.362;2023-09-12T00:00:47;21.70;99.90
14517;DHT22;7344;50.864;4.362;2023-09-12T00:03:13;21.80;99.90
14517;DHT22;7344;50.864;4.362;2023-09-12T00:05:39;21.80;99.90
14517;DHT22;7344;50.864;4.362;2023-09-12T00:08:04;21.70;99.90
14517;DHT22;7344;50.864;4.362;2023-09-12T00:10:30;21.60;99.90
14517;DHT22;7344;50.864;4.362;2023-09-12T00:12:56;21.50;99.90
14517;DHT22;7344;50.864;4.362;2023-09-12T00:15:22;21.50;99.90
14517;DHT22;7344;50.864;4.362;2023-09-12T00:17:47;21.50;99.90
14517;DHT22;7344;50.864;4.362;2023-09-12T00:20:14;21.60;99.90
14517;DHT22;7344;50.864;4.362;2023-09-12T00:22:40;21.70;99.90
14517;DHT22;7344;50.864;4.362;2023-09-12T00:25:06;21.60;99.90
14517;DHT22;7344;50.864;4.362;2023-09-12T00:27:32;21.50;99.90
14517;DHT22;7344;50.864;4.362;2023-09-12T00:29:57;21.50;99.90
14517;DHT22;7344;50.864;4.362;2023-09-12T00:32:23;21.50;99.90
14517;DHT22;7344;50.864;4.362;2023-09-12T00:34:48;21.60;99.90
14517;DHT22;7344;50.864;4.362;2023-09-12T00:37:14;21.60;99.90
14517;DHT22;7344;50.864;4.362;2023-09-12T00:39:40;21.60;99.90
14517;DHT22;7344;50.864;4.362;2023-09-12T00:42:05;21.50;99.90
14517;DHT22;7344;50.864;4.362;2023-09-12T00:44:33;21.40;99.90
14517;DHT22;7344;50.864;4.362;2023-09-12T00:47:00;21.40;99.90
14517;DHT22;7344;50.864;4.362;2023-09-12T00:49:27;21.60;99.90
14517;DHT22;7344;50.864;4.362;2023-09-12T00:51:54;21.60;99.90
14517;DHT22;7344;50.864;4.362;2023-09-12T00:54:22;21.60;99.90
14517;DHT22;7344;50.864;4.362;2023-09-12T00:56:47;21.60;99.90
14517;DHT22;7344;50.864;4.362;2023-09-12T00:59:15;21.50;99.90
14517;DHT22;7344;50.864;4.362;2023-09-12T01:01:41;21.50;99.90
14517;DHT22;7344;50.864;4.362;2023-09-12T01:04:07;21.50;99.90
14517;DHT22;7344;50.864;4.362;2023-09-12T01:06:34;21.50;99.90
14517;DHT22;7344;50.864;4.362;2023-09-12T01:09:00;21.60;99.90
14517;DHT22;7344;50.864;4.362;2023-09-12T01:11:26;21.60;99.90
14517;DHT22;7344;50.864;4.362;2023-09-12T01:13:53;21.60;99.90
14517;DHT22;7344;50.864;4.362;2023-09-12T01:16:18;21.60;99.90
14517;DHT22;7344;50.864;4.362;2023-09-12T01:18:44;21.60;99.90
14517;DHT22;7344;50.864;4.362;2023-09-12T01:24:08;21.50;99.90
14517;DHT22;7344;50.864;4.362;2023-09-12T01:26:55;21.50;99.90
14517;DHT22;7344;50.864;4.362;2023-09-12T01:29:25;21.30;99.90
14517;DHT22;7344;50.864;4.362;2023-09-12T01:31:52;21.30;99.90
14517;DHT22;7344;50.864;4.362;2023-09-12T01:34:19;21.10;99.90
14517;DHT22;7344;50.864;4.362;2023-09-12T01:36:44;21.10;99.90
14517;DHT22;7344;50.864;4.362;2023-09-12T01:39:10;21.10;99.90
14517;DHT22;7344;50.864;4.362;2023-09-12T01:41:40;21.00;99.90
14517;DHT22;7344;50.864;4.362;2023-09-12T01:44:06;21.00;99.90
14517;DHT22;7344;50.864;4.362;2023-09-12T01:46:34;21.00;99.90
14517;DHT22;7344;50.864;4.362;2023-09-12T01:49:02;20.90;99.90
14517;DHT22;7344;50.864;4.362;2023-09-12T01:51:29;20.90;99.90
14517;DHT22;7344;50.864;4.362;2023-09-12T01:53:55;21.00;99.90
14517;DHT22;7344;50.864;4.362;2023-09-12T01:56:22;21.00;99.90
14517;DHT22;7344;50.864;4.362;2023-09-12T01:58:48;20.90;99.90
14517;DHT22;7344;50.864;4.362;2023-09-12T02:01:14;20.90;99.90
14517;DHT22;7344;50.864;4.362;2023-09-12T02:03:40;20.90;99.90
14517;DHT22;7344;50.864;4.362;2023-09-12T02:06:05;20.90;99.90
14517;DHT22;7344;50.864;4.362;2023-09-12T02:08:31;20.80;99.90
14517;DHT22;7344;50.864;4.362;2023-09-12T02:10:56;20.80;99.90
14517;DHT22;7344;50.864;4.362;2023-09-12T02:13:22;20.80;99.90
14517;DHT22;7344;50.864;4.362;2023-09-12T02:15:48;20.80;99.90
14517;DHT22;7344;50.864;4.362;2023-09-12T02:18:13;20.70;99.90
14517;DHT22;7344;50.864;4.362;2023-09-12T02:20:40;20.70;99.90
14517;DHT22;7344;50.864;4.362;2023-09-12T02:23:07;20.60;99.90
14517;DHT22;7344;50.864;4.362;2023-09-12T02:25:32;20.70;99.90
14517;DHT22;7344;50.864;4.362;2023-09-12T02:27:58;20.70;99.90
14517;DHT22;7344;50.864;4.362;2023-09-12T02:30:23;20.80;99.90
14517;DHT22;7344;50.864;4.362;2023-09-12T02:32:49;20.90;99.90
14517;DHT22;7344;50.864;4.362;2023-09-12T02:35:14;21.00;99.90
14517;DHT22;7344;50.864;4.362;2023-09-12T02:37:40;20.90;99.90
14517;DHT22;7344;50.864;4.362;2023-09-12T02:40:06;20.90;99.90
14517;DHT22;7344;50.864;4.362;2023-09-12T02:42:32;20.90;99.90
14517;DHT22;7344;50.864;4.362;2023-09-12T02:44:58;21.00;99.90
14517;DHT22;7344;50.864;4.362;2023-09-12T02:47:23;21.00;99.90
14517;DHT22;7344;50.864;4.362;2023-09-12T02:49:49;20.90;99.90
14517;DHT22;7344;50.864;4.362;2023-09-12T02:52:14;20.90;99.90
14517;DHT22;7344;50.864;4.362;2023-09-12T02:54:40;20.90;99.90
14517;DHT22;7344;50.864;4.362;2023-09-12T02:57:06;20.90;99.90
14517;DHT22;7344;50.864;4.362;2023-09-12T02:59:31;20.80;99.90
14517;DHT22;7344;50.864;4.362;2023-09-12T03:01:57;20.80;99.90
14517;DHT22;7344;50.864;4.362;2023-09-12T03:04:25;20.80;99.90
14517;DHT22;7344;50.864;4.362;2023-09-12T03:06:53;20.90;99.90
14517;DHT22;7344;50.864;4.362;2023-09-12T03:09:19;21.00;99.90
14517;DHT22;7344;50.864;4.362;2023-09-12T03:11:45;21.00;99.90
14517;DHT22;7344;50.864;4.362;2023-09-12T03:14:10;21.00;99.90
14517;DHT22;7344;50.864;4.362;2023-09-12T03:16:36;20.90;99.90
14517;DHT22;7344;50.864;4.362;2023-09-12T03:19:03;21.00;99.90
14517;DHT22;7344;50.864;4.362;2023-09-12T03:21:29;21.10;99.90
14517;DHT22;7344;50.864;4.362;2023-09-12T03:23:54;21.10;99.90
14517;DHT22;7344;50.864;4.362;2023-09-12T03:26:20;21.20;99.90
14517;DHT22;7344;50.864;4.362;2023-09-12T03:28:47;21.20;99.90
14517;DHT22;7344;50.864;4.362;2023-09-12T03:31:14;21.20;99.90
14517;DHT22;7344;50.864;4.362;2023-09-12T03:33:40;21.10;99.90
14517;DHT22;7344;50.864;4.362;2023-09-12T03:36:07;21.00;99.90
14517;DHT22;7344;50.864;4.362;2023-09-12T03:38:34;21.00;99.90
14517;DHT22;7344;50.864;4.362;2023-09-12T03:41:00;21.10;99.90
14517;DHT22;7344;50.864;4.362;2023-09-12T03:43:26;21.20;99.90
14517;DHT22;7344;50.864;4.362;2023-09-12T03:45:52;21.20;99.90
14517;DHT22;7344;50.864;4.362;2023-09-12T03:48:17;21.20;99.90
14517;DHT22;7344;50.864;4.362;2023-09-12T03:50:44;21.20;99.90
14517;DHT22;7344;50.864;4.362;2023-09-12T03:53:10;21.20;99.90
14517;DHT22;7344;50.864;4.362;2023-09-12T03:55:36;21.30;99.90
14517;DHT22;7344;50.864;4.362;2023-09-12T03:58:01;21.10;99.90
14517;DHT22;7344;50.864;4.362;2023-09-12T04:00:27;21.10;99.90
14517;DHT22;7344;50.864;4.362;2023-09-12T04:02:53;21.10;99.90
14517;DHT22;7344;50.864;4.362;2023-09-12T04:05:18;21.20;99.90
14517;DHT22;7344;50.864;4.362;2023-09-12T04:07:44;21.20;99.90
14517;DHT22;7344;50.864;4.362;2023-09-12T04:10:10;21.10;99.90
14517;DHT22;7344;50.864;4.362;2023-09-12T04:12:35;21.10;99.90
14517;DHT22;7344;50.864;4.362;2023-09-12T04:15:01;21.20;99.90
14517;DHT22;7344;50.864;4.362;2023-09-12T04:17:26;21.30;99.90
14517;DHT22;7344;50.864;4.362;2023-09-12T04:19:52;21.20;99.90
14517;DHT22;7344;50.864;4.362;2023-09-12T04:22:18;21.20;99.90
14517;DHT22;7344;50.864;4.362;2023-09-12T04:24:43;21.10;99.90
14517;DHT22;7344;50.864;4.362;2023-09-12T04:27:09;21.10;99.90
14517;DHT22;7344;50.864;4.362;2023-09-12T04:29:34;21.00;99.90
14517;DHT22;7344;50.864;4.362;2023-09-12T04:32:02;21.00;99.90
14517;DHT22;7344;50.864;4.362;2023-09-12T04:34:29;21.00;99.90
14517;DHT22;7344;50.864;4.362;2023-09-12T04:36:54;20.90;99.90
14517;DHT22;7344;50.864;4.362;2023-09-12T04:39:20;21.00;99.90
14517;DHT22;7344;50.864;4.362;2023-09-12T04:41:46;21.10;99.90
14517;DHT22;7344;50.864;4.362;2023-09-12T04:44:12;21.10;99.90
14517;DHT22;7344;50.864;4.362;2023-09-12T04:46:38;21.10;99.90
14517;DHT22;7344;50.864;4.362;2023-09-12T04:49:03;21.10;99.90
14517;DHT22;7344;50.864;4.362;2023-09-12T04:51:29;21.20;99.90
14517;DHT22;7344;50.864;4.362;2023-09-12T04:53:55;21.10;99.90
14517;DHT22;7344;50.864;4.362;2023-09-12T04:56:21;21.10;99.90
14517;DHT22;7344;50.864;4.362;2023-09-12T04:58:49;21.20;99.90
14517;DHT22;7344;50.864;4.362;2023-09-12T05:01:15;21.10;99.90
14517;DHT22;7344;50.864;4.362;2023-09-12T05:03:41;21.00;99.90
14517;DHT22;7344;50.864;4.362;2023-09-12T05:06:07;20.90;99.90
14517;DHT22;7344;50.864;4.362;2023-09-12T05:08:32;20.90;99.90
14517;DHT22;7344;50.864;4.362;2023-09-12T05:10:58;21.00;99.90
14517;DHT22;7344;50.864;4.362;2023-09-12T05:13:24;21.10;99.90
14517;DHT22;7344;50.864;4.362;2023-09-12T05:15:49;21.00;99.90
14517;DHT22;7344;50.864;4.362;2023-09-12T05:18:15;21.00;99.90
14517;DHT22;7344;50.864;4.362;2023-09-12T05:20:41;21.00;99.90
14517;DHT22;7344;50.864;4.362;2023-09-12T05:23:06;20.90;99.90
14517;DHT22;7344;50.864;4.362;2023-09-12T05:25:32;20.90;99.90
14517;DHT22;7344;50.864;4.362;2023-09-12T05:27:57;20.90;99.90
14517;DHT22;7344;50.864;4.362;2023-09-12T05:30:23;20.80;99.90
14517;DHT22;7344;50.864;4.362;2023-09-12T05:32:49;20.70;99.90
14517;DHT22;7344;50.864;4.362;2023-09-12T05:35:14;20.70;99.90
14517;DHT22;7344;50.864;4.362;2023-09-12T05:37:40;20.70;99.90
14517;DHT22;7344;50.864;4.362;2023-09-12T05:40:06;20.80;99.90
14517;DHT22;7344;50.864;4.362;2023-09-12T05:42:32;20.70;99.90
14517;DHT22;7344;50.864;4.362;2023-09-12T05:44:57;20.80;99.90
14517;DHT22;7344;50.864;4.362;2023-09-12T05:47:23;20.90;99.90
14517;DHT22;7344;50.864;4.362;2023-09-12T05:49:50;20.80;99.90
14517;DHT22;7344;50.864;4.362;2023-09-12T05:52:16;20.80;99.90
14517;DHT22;7344;50.864;4.362;2023-09-12T05:54:42;20.90;99.90
14517;DHT22;7344;50.864;4.362;2023-09-12T05:57:09;20.90;99.90
14517;DHT22;7344;50.864;4.362;2023-09-12T05:59:37;21.10;99.90
14517;DHT22;7344;50.864;4.362;2023-09-12T06:02:04;21.50;99.90
14517;DHT22;7344;50.864;4.362;2023-09-12T06:04:30;21.90;99.90
14517;DHT22;7344;50.864;4.362;2023-09-12T06:06:55;22.30;99.90
14517;DHT22;7344;50.864;4.362;2023-09-12T06:09:21;22.80;99.90
14517;DHT22;7344;50.864;4.362;2023-09-12T06:11:47;23.40;90.20
14517;DHT22;7344;50.864;4.362;2023-09-12T06:14:12;23.90;60.60
14517;DHT22;7344;50.864;4.362;2023-09-12T06:16:38;24.60;38.00
14517;DHT22;7344;50.864;4.362;2023-09-12T06:19:03;25.20;15.60
14517;DHT22;7344;50.864;4.362;2023-09-12T06:21:29;25.80;1.00
14517;DHT22;7344;50.864;4.362;2023-09-12T06:24:15;26.50;1.00
14517;DHT22;7344;50.864;4.362;2023-09-12T06:26:41;27.20;1.00
14517;DHT22;7344;50.864;4.362;2023-09-12T06:29:08;27.30;1.00
14517;DHT22;7344;50.864;4.362;2023-09-12T06:31:34;27.30;1.00
14517;DHT22;7344;50.864;4.362;2023-09-12T06:33:59;27.10;1.00
14517;DHT22;7344;50.864;4.362;2023-09-12T06:36:25;26.80;1.00
14517;DHT22;7344;50.864;4.362;2023-09-12T06:38:51;26.50;1.00
14517;DHT22;7344;50.864;4.362;2023-09-12T06:41:20;25.90;1.00
14517;DHT22;7344;50.864;4.362;2023-09-12T06:43:45;25.60;1.00
14517;DHT22;7344;50.864;4.362;2023-09-12T06:46:11;25.40;1.00
14517;DHT22;7344;50.864;4.362;2023-09-12T06:48:37;25.10;1.00
14517;DHT22;7344;50.864;4.362;2023-09-12T06:51:08;24.70;2.50
14517;DHT22;7344;50.864;4.362;2023-09-12T06:53:34;24.50;10.80
14517;DHT22;7344;50.864;4.362;2023-09-12T06:55:59;24.30;15.90
14517;DHT22;7344;50.864;4.362;2023-09-12T06:58:25;24.40;16.20
14517;DHT22;7344;50.864;4.362;2023-09-12T07:00:51;24.30;17.60
14517;DHT22;7344;50.864;4.362;2023-09-12T07:03:16;24.30;18.60
14517;DHT22;7344;50.864;4.362;2023-09-12T07:05:42;24.30;18.30
14517;DHT22;7344;50.864;4.362;2023-09-12T07:08:10;24.40;15.90
14517;DHT22;7344;50.864;4.362;2023-09-12T07:10:36;23.80;15.40
14517;DHT22;7344;50.864;4.362;2023-09-12T07:13:02;23.70;25.40
14517;DHT22;7344;50.864;4.362;2023-09-12T07:15:27;23.70;22.80
14517;DHT22;7344;50.864;4.362;2023-09-12T07:17:53;23.40;33.40
14517;DHT22;7344;50.864;4.362;2023-09-12T07:20:19;23.30;33.70
14517;DHT22;7344;50.864;4.362;2023-09-12T07:22:46;23.00;44.40
14517;DHT22;7344;50.864;4.362;2023-09-12T07:25:14;22.80;52.60
14517;DHT22;7344;50.864;4.362;2023-09-12T07:27:40;22.70;61.30
14517;DHT22;7344;50.864;4.362;2023-09-12T07:30:08;22.70;65.20
14517;DHT22;7344;50.864;4.362;2023-09-12T07:32:33;22.90;62.60
14517;DHT22;7344;50.864;4.362;2023-09-12T07:34:59;23.40;49.90
14517;DHT22;7344;50.864;4.362;2023-09-12T07:37:25;24.20;28.40
14517;DHT22;7344;50.864;4.362;2023-09-12T07:39:50;24.90;5.50
14517;DHT22;7344;50.864;4.362;2023-09-12T07:42:16;25.20;1.00
14517;DHT22;7344;50.864;4.362;2023-09-12T07:44:42;25.40;1.00
14517;DHT22;7344;50.864;4.362;2023-09-12T07:47:07;25.70;1.00
14517;DHT22;7344;50.864;4.362;2023-09-12T07:49:33;26.20;1.00
14517;DHT22;7344;50.864;4.362;2023-09-12T07:51:59;26.50;1.00
14517;DHT22;7344;50.864;4.362;2023-09-12T07:54:24;26.80;1.00
14517;DHT22;7344;50.864;4.362;2023-09-12T07:56:50;26.80;1.00
14517;DHT22;7344;50.864;4.362;2023-09-12T07:59:15;27.00;1.00
14517;DHT22;7344;50.864;4.362;2023-09-12T08:01:42;27.30;1.00
14517;DHT22;7344;50.864;4.362;2023-09-12T08:04:07;26.60;1.00
14517;DHT22;7344;50.864;4.362;2023-09-12T08:06:33;26.40;1.00
14517;DHT22;7344;50.864;4.362;2023-09-12T08:08:58;26.50;1.00
14517;DHT22;7344;50.864;4.362;2023-09-12T08:11:24;27.40;1.00
14517;DHT22;7344;50.864;4.362;2023-09-12T08:13:50;28.60;1.00
14517;DHT22;7344;50.864;4.362;2023-09-12T08:16:16;30.00;99.90
14517;DHT22;7344;50.864;4.362;2023-09-12T08:18:41;30.90;53.00
14517;DHT22;7344;50.864;4.362;2023-09-12T08:21:07;31.50;1.00
14517;DHT22;7344;50.864;4.362;2023-09-12T08:23:33;31.90;1.00
14517;DHT22;7344;50.864;4.362;2023-09-12T08:25:59;32.50;1.00
14517;DHT22;7344;50.864;4.362;2023-09-12T08:28:24;33.80;99.90
14517;DHT22;7344;50.864;4.362;2023-09-12T08:30:50;34.50;1.00
14517;DHT22;7344;50.864;4.362;2023-09-12T08:33:16;34.60;1.00
14517;DHT22;7344;50.864;4.362;2023-09-12T08:35:41;34.70;1.00
14517;DHT22;7344;50.864;4.362;2023-09-12T08:38:07;35.40;1.00
14517;DHT22;7344;50.864;4.362;2023-09-12T08:40:33;35.90;99.90
14517;DHT22;7344;50.864;4.362;2023-09-12T08:43:01;35.60;99.90
14517;DHT22;7344;50.864;4.362;2023-09-12T08:45:29;35.40;1.00
14517;DHT22;7344;50.864;4.362;2023-09-12T08:47:56;35.30;1.00
14517;DHT22;7344;50.864;4.362;2023-09-12T08:50:22;34.80;1.00
14517;DHT22;7344;50.864;4.362;2023-09-12T08:52:50;35.20;1.00
14517;DHT22;7344;50.864;4.362;2023-09-12T08:55:16;35.10;1.00
14517;DHT22;7344;50.864;4.362;2023-09-12T08:57:43;35.40;1.00
14517;DHT22;7344;50.864;4.362;2023-09-12T09:00:10;36.10;1.00
14517;DHT22;7344;50.864;4.362;2023-09-12T09:02:42;36.00;1.00
14517;DHT22;7344;50.864;4.362;2023-09-12T09:05:09;34.70;1.00
14517;DHT22;7344;50.864;4.362;2023-09-12T09:07:39;35.00;1.00
14517;DHT22;7344;50.864;4.362;2023-09-12T09:10:07;35.00;1.00
14517;DHT22;7344;50.864;4.362;2023-09-12T09:12:34;33.90;1.00
14517;DHT22;7344;50.864;4.362;2023-09-12T09:15:26;33.30;99.90
14517;DHT22;7344;50.864;4.362;2023-09-12T09:17:53;33.70;99.90
14517;DHT22;7344;50.864;4.362;2023-09-12T09:20:33;34.20;79.60
14517;DHT22;7344;50.864;4.362;2023-09-12T09:23:04;35.10;1.00
14517;DHT22;7344;50.864;4.362;2023-09-12T09:25:33;35.90;1.00
14517;DHT22;7344;50.864;4.362;2023-09-12T09:28:16;36.40;99.90
14517;DHT22;7344;50.864;4.362;2023-09-12T09:30:43;36.50;99.90
14517;DHT22;7344;50.864;4.362;2023-09-12T09:33:10;36.80;99.90
14517;DHT22;7344;50.864;4.362;2023-09-12T09:35:36;35.70;99.90
14517;DHT22;7344;50.864;4.362;2023-09-12T09:38:03;36.30;99.90
14517;DHT22;7344;50.864;4.362;2023-09-12T09:40:31;36.30;99.90
14517;DHT22;7344;50.864;4.362;2023-09-12T09:43:00;36.00;99.90
14517;DHT22;7344;50.864;4.362;2023-09-12T09:45:27;36.10;99.90
14517;DHT22;7344;50.864;4.362;2023-09-12T09:47:57;35.90;99.90
14517;DHT22;7344;50.864;4.362;2023-09-12T09:50:24;35.40;1.00
14517;DHT22;7344;50.864;4.362;2023-09-12T09:52:56;34.90;1.00
14517;DHT22;7344;50.864;4.362;2023-09-12T09:55:23;34.60;1.00
14517;DHT22;7344;50.864;4.362;2023-09-12T09:57:49;33.80;99.90
14517;DHT22;7344;50.864;4.362;2023-09-12T10:00:18;32.80;1.00
14517;DHT22;7344;50.864;4.362;2023-09-12T10:02:45;33.20;1.00
14517;DHT22;7344;50.864;4.362;2023-09-12T10:05:13;34.00;99.90
14517;DHT22;7344;50.864;4.362;2023-09-12T10:07:40;34.10;21.20
14517;DHT22;7344;50.864;4.362;2023-09-12T10:10:07;34.60;1.00
14517;DHT22;7344;50.864;4.362;2023-09-12T10:12:35;35.10;1.00
14517;DHT22;7344;50.864;4.362;2023-09-12T10:15:04;35.00;1.00
14517;DHT22;7344;50.864;4.362;2023-09-12T10:17:36;35.10;1.00
14517;DHT22;7344;50.864;4.362;2023-09-12T10:20:09;34.40;1.00
14517;DHT22;7344;50.864;4.362;2023-09-12T10:22:41;33.20;1.00
14517;DHT22;7344;50.864;4.362;2023-09-12T10:25:09;32.30;1.00
14517;DHT22;7344;50.864;4.362;2023-09-12T10:27:37;31.30;55.40
14517;DHT22;7344;50.864;4.362;2023-09-12T10:30:04;30.90;98.60
14517;DHT22;7344;50.864;4.362;2023-09-12T10:32:30;30.30;99.90
14517;DHT22;7344;50.864;4.362;2023-09-12T10:34:59;30.10;1.00
14517;DHT22;7344;50.864;4.362;2023-09-12T10:37:26;29.80;99.90
14517;DHT22;7344;50.864;4.362;2023-09-12T10:39:53;29.90;1.00
14517;DHT22;7344;50.864;4.362;2023-09-12T10:42:20;29.50;99.90
14517;DHT22;7344;50.864;4.362;2023-09-12T10:44:46;29.50;99.90
14517;DHT22;7344;50.864;4.362;2023-09-12T10:47:13;29.90;99.90
14517;DHT22;7344;50.864;4.362;2023-09-12T10:49:39;29.90;1.00
14517;DHT22;7344;50.864;4.362;2023-09-12T10:52:05;30.00;99.90
14517;DHT22;7344;50.864;4.362;2023-09-12T10:54:40;30.40;1.00
14517;DHT22;7344;50.864;4.362;2023-09-12T10:57:07;31.40;99.90
14517;DHT22;7344;50.864;4.362;2023-09-12T10:59:33;32.10;99.90
14517;DHT22;7344;50.864;4.362;2023-09-12T11:02:27;32.40;1.00
14517;DHT22;7344;50.864;4.362;2023-09-12T11:05:00;32.30;1.00
14517;DHT22;7344;50.864;4.362;2023-09-12T11:07:43;32.40;99.90
14517;DHT22;7344;50.864;4.362;2023-09-12T11:12:43;31.60;99.90
14517;DHT22;7344;50.864;4.362;2023-09-12T11:15:09;32.00;1.00
14517;DHT22;7344;50.864;4.362;2023-09-12T11:17:42;32.50;99.90
14517;DHT22;7344;50.864;4.362;2023-09-12T11:20:08;32.50;36.10
14517;DHT22;7344;50.864;4.362;2023-09-12T11:22:38;32.90;1.00
14517;DHT22;7344;50.864;4.362;2023-09-12T11:25:15;33.60;99.90
14517;DHT22;7344;50.864;4.362;2023-09-12T11:27:45;34.20;99.90
14517;DHT22;7344;50.864;4.362;2023-09-12T11:30:12;34.30;56.10
14517;DHT22;7344;50.864;4.362;2023-09-12T11:32:37;34.00;1.00
14517;DHT22;7344;50.864;4.362;2023-09-12T11:35:07;33.40;8.40
14517;DHT22;7344;50.864;4.362;2023-09-12T11:37:33;32.10;9.00
14517;DHT22;7344;50.864;4.362;2023-09-12T11:42:40;30.30;99.90
14517;DHT22;7344;50.864;4.362;2023-09-12T11:45:10;30.90;1.00
14517;DHT22;7344;50.864;4.362;2023-09-12T11:47:43;31.30;99.90
14517;DHT22;7344;50.864;4.362;2023-09-12T11:50:31;32.00;1.00
14517;DHT22;7344;50.864;4.362;2023-09-12T11:53:09;33.30;99.90
14517;DHT22;7344;50.864;4.362;2023-09-12T11:55:46;33.00;99.90
14517;DHT22;7344;50.864;4.362;2023-09-12T11:58:16;33.00;1.00
14517;DHT22;7344;50.864;4.362;2023-09-12T12:00:52;32.20;1.00
14517;DHT22;7344;50.864;4.362;2023-09-12T12:03:21;31.30;99.90
14517;DHT22;7344;50.864;4.362;2023-09-12T12:05:47;30.90;1.00
14517;DHT22;7344;50.864;4.362;2023-09-12T12:08:14;30.30;99.90
14517;DHT22;7344;50.864;4.362;2023-09-12T12:10:39;30.70;99.90
14517;DHT22;7344;50.864;4.362;2023-09-12T12:13:07;31.30;1.00
14517;DHT22;7344;50.864;4.362;2023-09-12T12:15:36;31.60;1.00
14517;DHT22;7344;50.864;4.362;2023-09-12T12:18:01;31.30;11.30
14517;DHT22;7344;50.864;4.362;2023-09-12T12:20:27;30.90;1.00
14517;DHT22;7344;50.864;4.362;2023-09-12T12:22:55;30.80;1.00
14517;DHT22;7344;50.864;4.362;2023-09-12T12:25:21;30.30;1.00
14517;DHT22;7344;50.864;4.362;2023-09-12T12:27:48;30.10;1.00
14517;DHT22;7344;50.864;4.362;2023-09-12T12:30:14;29.80;99.90
14517;DHT22;7344;50.864;4.362;2023-09-12T12:32:44;30.00;1.00
14517;DHT22;7344;50.864;4.362;2023-09-12T12:35:22;29.80;1.00
14517;DHT22;7344;50.864;4.362;2023-09-12T12:37:49;30.10;99.90
14517;DHT22;7344;50.864;4.362;2023-09-12T12:40:16;29.90;99.90
14517;DHT22;7344;50.864;4.362;2023-09-12T12:42:42;29.60;1.00
14517;DHT22;7344;50.864;4.362;2023-09-12T12:45:12;29.40;99.90
14517;DHT22;7344;50.864;4.362;2023-09-12T12:47:39;29.40;99.90
14517;DHT22;7344;50.864;4.362;2023-09-12T12:50:22;29.20;1.00
14517;DHT22;7344;50.864;4.362;2023-09-12T12:52:48;29.30;1.00
14517;DHT22;7344;50.864;4.362;2023-09-12T12:55:15;29.20;71.40
14517;DHT22;7344;50.864;4.362;2023-09-12T12:57:43;29.30;99.90
14517;DHT22;7344;50.864;4.362;2023-09-12T13:02:40;28.70;1.00
14517;DHT22;7344;50.864;4.362;2023-09-12T13:05:20;28.80;99.90
14517;DHT22;7344;50.864;4.362;2023-09-12T13:07:48;28.70;99.90
14517;DHT22;7344;50.864;4.362;2023-09-12T13:10:14;28.90;99.90
14517;DHT22;7344;50.864;4.362;2023-09-12T13:12:40;28.80;99.90
14517;DHT22;7344;50.864;4.362;2023-09-12T13:15:06;28.80;99.90
14517;DHT22;7344;50.864;4.362;2023-09-12T13:17:32;28.80;99.90
14517;DHT22;7344;50.864;4.362;2023-09-12T13:19:57;28.60;99.90
14517;DHT22;7344;50.864;4.362;2023-09-12T13:22:23;28.50;99.90
14517;DHT22;7344;50.864;4.362;2023-09-12T13:24:49;28.60;99.90
14517;DHT22;7344;50.864;4.362;2023-09-12T13:27:14;28.50;78.20
14517;DHT22;7344;50.864;4.362;2023-09-12T13:29:40;28.40;99.90
14517;DHT22;7344;50.864;4.362;2023-09-12T13:32:06;28.30;99.90
14517;DHT22;7344;50.864;4.362;2023-09-12T13:34:31;28.10;99.90
14517;DHT22;7344;50.864;4.362;2023-09-12T13:36:57;28.00;99.90
14517;DHT22;7344;50.864;4.362;2023-09-12T13:39:24;28.00;99.90
14517;DHT22;7344;50.864;4.362;2023-09-12T13:41:50;27.90;99.90
14517;DHT22;7344;50.864;4.362;2023-09-12T13:44:16;27.80;1.00
14517;DHT22;7344;50.864;4.362;2023-09-12T13:46:42;27.80;1.00
14517;DHT22;7344;50.864;4.362;2023-09-12T13:49:10;27.90;1.00
14517;DHT22;7344;50.864;4.362;2023-09-12T13:51:35;27.90;1.00
14517;DHT22;7344;50.864;4.362;2023-09-12T13:54:01;27.70;1.00
14517;DHT22;7344;50.864;4.362;2023-09-12T13:56:28;27.70;1.00
14517;DHT22;7344;50.864;4.362;2023-09-12T13:58:54;27.50;1.00
14517;DHT22;7344;50.864;4.362;2023-09-12T14:01:19;27.50;1.00
14517;DHT22;7344;50.864;4.362;2023-09-12T14:03:45;27.40;1.00
14517;DHT22;7344;50.864;4.362;2023-09-12T14:06:11;27.50;1.00
14517;DHT22;7344;50.864;4.362;2023-09-12T14:08:36;27.50;1.00
14517;DHT22;7344;50.864;4.362;2023-09-12T14:11:02;27.60;1.00
14517;DHT22;7344;50.864;4.362;2023-09-12T14:13:28;27.50;1.00
14517;DHT22;7344;50.864;4.362;2023-09-12T14:15:53;27.40;1.00
14517;DHT22;7344;50.864;4.362;2023-09-12T14:18:19;27.40;1.00
14517;DHT22;7344;50.864;4.362;2023-09-12T14:20:46;27.50;1.00
14517;DHT22;7344;50.864;4.362;2023-09-12T14:23:12;27.40;1.00
14517;DHT22;7344;50.864;4.362;2023-09-12T14:25:38;27.20;1.00
14517;DHT22;7344;50.864;4.362;2023-09-12T14:28:04;27.10;1.00
14517;DHT22;7344;50.864;4.362;2023-09-12T14:30:30;27.00;1.00
14517;DHT22;7344;50.864;4.362;2023-09-12T14:33:02;27.10;1.00
14517;DHT22;7344;50.864;4.362;2023-09-12T14:35:28;27.10;1.00
14517;DHT22;7344;50.864;4.362;2023-09-12T14:37:54;26.90;1.00
14517;DHT22;7344;50.864;4.362;2023-09-12T14:40:20;26.90;1.00
14517;DHT22;7344;50.864;4.362;2023-09-12T14:42:45;26.80;1.00
14517;DHT22;7344;50.864;4.362;2023-09-12T14:45:11;26.80;1.00
14517;DHT22;7344;50.864;4.362;2023-09-12T14:47:36;26.70;1.00
14517;DHT22;7344;50.864;4.362;2023-09-12T14:50:03;26.60;1.00
14517;DHT22;7344;50.864;4.362;2023-09-12T14:52:28;26.40;1.00
14517;DHT22;7344;50.864;4.362;2023-09-12T14:54:55;26.50;1.00
14517;DHT22;7344;50.864;4.362;2023-09-12T14:57:23;26.40;1.00
14517;DHT22;7344;50.864;4.362;2023-09-12T14:59:52;26.20;1.00
14517;DHT22;7344;50.864;4.362;2023-09-12T15:02:18;26.30;1.00
14517;DHT22;7344;50.864;4.362;2023-09-12T15:04:43;26.30;1.00
14517;DHT22;7344;50.864;4.362;2023-09-12T15:07:09;26.30;1.00
14517;DHT22;7344;50.864;4.362;2023-09-12T15:09:34;26.20;1.00
14517;DHT22;7344;50.864;4.362;2023-09-12T15:12:00;26.20;1.00
14517;DHT22;7344;50.864;4.362;2023-09-12T15:14:25;26.30;1.00
14517;DHT22;7344;50.864;4.362;2023-09-12T15:16:51;26.30;1.00
14517;DHT22;7344;50.864;4.362;2023-09-12T15:19:17;26.20;1.00
14517;DHT22;7344;50.864;4.362;2023-09-12T15:21:42;26.20;1.00
14517;DHT22;7344;50.864;4.362;2023-09-12T15:24:09;26.10;1.00
14517;DHT22;7344;50.864;4.362;2023-09-12T15:26:35;26.00;1.00
14517;DHT22;7344;50.864;4.362;2023-09-12T15:29:00;25.90;1.00
14517;DHT22;7344;50.864;4.362;2023-09-12T15:31:27;25.80;1.00
14517;DHT22;7344;50.864;4.362;2023-09-12T15:33:53;25.80;1.00
14517;DHT22;7344;50.864;4.362;2023-09-12T15:36:20;25.70;1.00
14517;DHT22;7344;50.864;4.362;2023-09-12T15:38:45;25.80;1.00
14517;DHT22;7344;50.864;4.362;2023-09-12T15:41:11;25.60;1.00
14517;DHT22;7344;50.864;4.362;2023-09-12T15:43:38;25.40;1.00
14517;DHT22;7344;50.864;4.362;2023-09-12T15:46:04;25.30;1.00
14517;DHT22;7344;50.864;4.362;2023-09-12T15:48:30;25.20;1.00
14517;DHT22;7344;50.864;4.362;2023-09-12T15:50:55;24.90;1.00
14517;DHT22;7344;50.864;4.362;2023-09-12T15:53:21;24.90;1.00
14517;DHT22;7344;50.864;4.362;2023-09-12T15:55:46;24.90;1.00
14517;DHT22;7344;50.864;4.362;2023-09-12T15:58:14;24.90;1.00
14517;DHT22;7344;50.864;4.362;2023-09-12T16:00:41;24.80;1.00